createdAt,value
2022-10-02T00:02:06.555Z,12.24
2022-10-02T00:04:41.493Z,12.20
2022-10-02T00:07:11.899Z,12.28
2022-10-02T00:09:46.910Z,12.24
2022-10-02T00:12:19.618Z,12.20
2022-10-02T00:14:51.966Z,12.19
2022-10-02T00:17:29.179Z,12.25
2022-10-02T00:19:58.114Z,12.33
2022-10-02T00:22:38.308Z,12.36
2022-10-02T00:25:17.269Z,12.37
2022-10-02T00:27:56.572Z,12.33
2022-10-02T00:30:24.717Z,12.36
2022-10-02T00:33:05.504Z,12.42
2022-10-02T00:36:03.276Z,12.37
2022-10-02T00:38:42.958Z,12.37
2022-10-02T00:41:56.510Z,12.41
2022-10-02T00:44:32.728Z,12.31
2022-10-02T00:47:09.731Z,12.32
2022-10-02T00:50:01.779Z,12.38
2022-10-02T00:52:43.018Z,12.44
2022-10-02T00:55:31.560Z,12.39
2022-10-02T00:58:23.241Z,12.41
2022-10-02T01:01:02.493Z,12.50
2022-10-02T01:03:37.537Z,12.39
2022-10-02T01:06:07.304Z,12.35
2022-10-02T01:08:36.090Z,12.35
2022-10-02T01:11:05.085Z,12.31
2022-10-02T01:13:35.674Z,12.34
2022-10-02T01:16:05.940Z,12.31
2022-10-02T01:18:34.292Z,12.37
2022-10-02T01:21:10.333Z,12.36
2022-10-02T01:23:46.579Z,12.36
2022-10-02T01:26:14.863Z,12.39
2022-10-02T01:28:43.280Z,12.41
2022-10-02T01:31:13.780Z,12.40
2022-10-02T01:33:44.269Z,12.39
2022-10-02T01:36:14.679Z,12.43
2022-10-02T01:38:44.688Z,12.48
2022-10-02T01:41:13.048Z,12.42
2022-10-02T01:43:45.245Z,12.43
2022-10-02T01:46:26.269Z,12.45
2022-10-02T01:49:06.233Z,12.45
2022-10-02T01:51:56.345Z,12.47
2022-10-02T01:54:33.959Z,12.45
2022-10-02T01:57:09.295Z,12.48
2022-10-02T01:59:50.305Z,12.56
2022-10-02T02:02:28.747Z,12.60
2022-10-02T02:05:06.601Z,12.61
2022-10-02T02:07:46.963Z,12.55
2022-10-02T02:10:24.012Z,12.56
2022-10-02T02:12:59.195Z,12.55
2022-10-02T02:15:39.389Z,12.55
2022-10-02T02:18:11.800Z,12.62
2022-10-02T02:20:44.744Z,12.64
2022-10-02T02:23:17.912Z,12.62
2022-10-02T02:25:50.606Z,12.61
2022-10-02T02:28:21.326Z,12.62
2022-10-02T02:30:53.285Z,12.63
2022-10-02T02:33:27.413Z,12.63
2022-10-02T02:36:01.196Z,12.62
2022-10-02T02:38:32.724Z,12.62
2022-10-02T02:41:05.760Z,12.70
2022-10-02T02:43:40.785Z,12.67
2022-10-02T02:46:17.798Z,12.60
2022-10-02T02:48:50.045Z,12.60
2022-10-02T02:51:22.843Z,12.66
2022-10-02T02:53:53.320Z,12.56
2022-10-02T02:56:22.491Z,12.52
2022-10-02T02:58:55.971Z,12.51
2022-10-02T03:01:24.214Z,12.53
2022-10-02T03:03:52.491Z,12.55
2022-10-02T03:06:31.504Z,12.48
2022-10-02T03:09:01.665Z,12.46
2022-10-02T03:11:41.628Z,12.44
2022-10-02T03:14:26.988Z,12.45
2022-10-02T03:17:06.738Z,12.41
2022-10-02T03:19:42.851Z,12.38
2022-10-02T03:22:19.861Z,12.35
2022-10-02T03:24:56.563Z,12.31
2022-10-02T03:27:34.949Z,12.29
2022-10-02T03:30:06.894Z,12.32
2022-10-02T03:32:36.161Z,12.33
2022-10-02T03:35:09.642Z,12.34
2022-10-02T03:37:40.802Z,12.34
2022-10-02T03:40:10.216Z,12.30
2022-10-02T03:42:39.757Z,12.30
2022-10-02T03:45:09.542Z,12.29
2022-10-02T03:47:37.690Z,12.28
2022-10-02T03:50:07.345Z,12.29
2022-10-02T03:52:35.554Z,12.30
2022-10-02T03:55:13.757Z,12.30
2022-10-02T03:57:46.128Z,12.32
2022-10-02T04:00:19.366Z,12.35
2022-10-02T04:02:53.077Z,12.37
2022-10-02T04:05:25.644Z,12.38
2022-10-02T04:07:58.509Z,12.41
2022-10-02T04:10:36.055Z,12.43
2022-10-02T04:13:11.544Z,12.44
2022-10-02T04:15:53.585Z,12.48
2022-10-02T04:18:26.116Z,12.54
2022-10-02T04:20:58.069Z,12.49
2022-10-02T04:23:32.149Z,12.49
2022-10-02T04:26:05.133Z,12.54
2022-10-02T04:28:39.827Z,12.57
2022-10-02T04:31:12.970Z,12.62
2022-10-02T04:33:41.818Z,12.63
2022-10-02T04:36:20.182Z,12.50
2022-10-02T04:39:07.054Z,12.46
2022-10-02T04:41:57.503Z,12.52
2022-10-02T04:44:43.824Z,12.52
2022-10-02T04:47:26.604Z,12.52
2022-10-02T04:50:08.331Z,12.48
2022-10-02T04:52:54.221Z,12.47
2022-10-02T04:55:37.412Z,12.56
2022-10-02T04:58:22.922Z,12.48
2022-10-02T05:01:00.237Z,12.45
2022-10-02T05:03:41.584Z,12.47
2022-10-02T05:06:27.929Z,12.38
2022-10-02T05:09:11.461Z,12.41
2022-10-02T05:12:04.117Z,12.46
2022-10-02T05:15:02.411Z,12.50
2022-10-02T05:18:02.839Z,12.50
2022-10-02T05:20:59.133Z,12.45
2022-10-02T05:23:42.600Z,12.48
2022-10-02T05:26:27.942Z,12.53
2022-10-02T05:29:21.018Z,12.55
2022-10-02T05:32:03.293Z,12.54
2022-10-02T05:34:50.120Z,12.51
2022-10-02T05:37:38.251Z,12.54
2022-10-02T05:40:17.156Z,12.58
2022-10-02T05:42:53.189Z,12.57
2022-10-02T05:45:29.273Z,12.55
2022-10-02T05:48:06.023Z,12.57
2022-10-02T05:50:37.634Z,12.54
2022-10-02T05:53:18.201Z,12.48
2022-10-02T05:55:52.270Z,12.50
2022-10-02T05:58:28.306Z,12.52
2022-10-02T06:01:03.825Z,12.62
2022-10-02T06:03:40.322Z,12.51
2022-10-02T06:06:15.000Z,12.41
2022-10-02T06:08:49.380Z,12.46
2022-10-02T06:11:23.025Z,12.50
2022-10-02T06:13:55.227Z,12.44
2022-10-02T06:16:26.914Z,12.49
2022-10-02T06:19:00.439Z,12.46
2022-10-02T06:21:36.361Z,12.42
2022-10-02T06:24:14.961Z,12.40
2022-10-02T06:26:48.690Z,12.36
2022-10-02T06:29:27.246Z,12.36
2022-10-02T06:32:07.654Z,12.37
2022-10-02T06:34:36.389Z,12.46
2022-10-02T06:37:27.164Z,12.48
2022-10-02T06:40:20.048Z,12.41
2022-10-02T06:42:57.847Z,12.44
2022-10-02T06:45:33.798Z,12.46
2022-10-02T06:48:07.036Z,12.48
2022-10-02T06:50:48.105Z,12.49
2022-10-02T06:53:38.571Z,12.60
2022-10-02T06:56:25.418Z,12.54
2022-10-02T06:59:03.973Z,12.62
2022-10-02T07:01:42.084Z,12.55
2022-10-02T07:04:25.391Z,12.50
2022-10-02T07:07:06.332Z,12.56
2022-10-02T07:09:47.989Z,12.57
2022-10-02T07:12:32.015Z,12.67
2022-10-02T07:15:21.537Z,12.85
2022-10-02T07:17:57.375Z,12.92
2022-10-02T07:20:35.098Z,12.77
2022-10-02T07:23:23.483Z,12.79
2022-10-02T07:26:15.985Z,12.79
2022-10-02T07:28:53.412Z,12.78
2022-10-02T07:31:39.733Z,12.80
2022-10-02T07:34:25.467Z,12.74
2022-10-02T07:37:04.787Z,12.78
2022-10-02T07:39:45.733Z,12.79
2022-10-02T07:42:34.911Z,12.82
2022-10-02T07:45:25.924Z,12.89
2022-10-02T07:48:21.797Z,12.89
2022-10-02T07:51:03.359Z,12.98
2022-10-02T07:53:40.140Z,13.07
2022-10-02T07:56:19.224Z,13.05
2022-10-02T07:58:51.419Z,13.06
2022-10-02T08:01:24.688Z,13.03
2022-10-02T08:03:56.727Z,13.08
2022-10-02T08:06:26.207Z,13.17
2022-10-02T08:08:58.023Z,13.26
2022-10-02T08:11:31.653Z,13.20
2022-10-02T08:14:06.765Z,13.17
2022-10-02T08:16:43.272Z,13.20
2022-10-02T08:19:17.064Z,13.24
2022-10-02T08:21:49.460Z,13.24
2022-10-02T08:24:23.801Z,13.25
2022-10-02T08:26:58.875Z,13.18
2022-10-02T08:29:39.472Z,13.27
2022-10-02T08:32:11.424Z,13.33
2022-10-02T08:34:41.236Z,13.31
2022-10-02T08:37:28.640Z,13.29
2022-10-02T08:40:32.504Z,13.39
2022-10-02T08:43:38.477Z,13.51
2022-10-02T08:46:48.150Z,13.44
2022-10-02T08:49:44.005Z,13.31
2022-10-02T08:52:41.339Z,13.29
2022-10-02T08:55:46.515Z,13.30
2022-10-02T08:58:44.291Z,13.30
2022-10-02T09:01:34.689Z,13.22
2022-10-02T09:04:37.483Z,13.24
2022-10-02T09:07:56.039Z,13.22
2022-10-02T09:10:49.934Z,13.19
2022-10-02T09:14:09.722Z,13.17
2022-10-02T09:17:01.107Z,13.13
2022-10-02T09:19:45.300Z,13.01
2022-10-02T09:22:37.125Z,13.01
2022-10-02T09:25:31.242Z,13.03
2022-10-02T09:28:30.718Z,13.06
2022-10-02T09:31:40.525Z,13.15
2022-10-02T09:34:47.206Z,13.15
2022-10-02T09:37:54.385Z,13.26
2022-10-02T09:40:40.112Z,13.42
2022-10-02T09:44:05.728Z,13.52
2022-10-02T09:46:52.165Z,13.58
2022-10-02T09:49:59.905Z,13.88
2022-10-02T09:53:08.721Z,14.00
2022-10-02T09:56:17.391Z,14.08
2022-10-02T09:59:28.588Z,14.04
2022-10-02T10:02:33.323Z,14.25
2022-10-02T10:05:22.790Z,14.42
2022-10-02T10:08:24.302Z,14.73
2022-10-02T10:11:20.194Z,14.90
2022-10-02T10:14:08.913Z,15.02
2022-10-02T10:17:10.414Z,15.11
2022-10-02T10:20:15.754Z,15.12
2022-10-02T10:23:20.415Z,14.95
2022-10-02T10:26:14.421Z,14.66
2022-10-02T10:29:08.838Z,14.80
2022-10-02T10:32:11.780Z,14.82
2022-10-02T10:35:23.189Z,15.03
2022-10-02T10:38:30.044Z,15.64
2022-10-02T10:41:25.296Z,15.99
2022-10-02T10:44:14.285Z,16.16
2022-10-02T10:47:05.470Z,16.11
2022-10-02T10:49:59.122Z,16.14
2022-10-02T10:52:41.388Z,15.98
2022-10-02T10:55:18.897Z,16.18
2022-10-02T10:58:08.095Z,16.42
2022-10-02T11:00:47.563Z,16.05
2022-10-02T11:03:47.789Z,15.74
2022-10-02T11:06:46.000Z,15.52
2022-10-02T11:09:47.185Z,15.44
2022-10-02T11:12:57.073Z,15.47
2022-10-02T11:15:55.684Z,15.96
2022-10-02T11:18:35.414Z,16.33
2022-10-02T11:21:21.997Z,16.41
2022-10-02T11:24:07.005Z,16.52
2022-10-02T11:27:01.473Z,16.88
2022-10-02T11:30:04.522Z,16.90
2022-10-02T11:33:06.514Z,17.37
2022-10-02T11:35:52.425Z,17.13
2022-10-02T11:38:41.585Z,16.70
2022-10-02T11:41:43.036Z,16.43
2022-10-02T11:44:27.759Z,16.50
2022-10-02T11:47:13.141Z,16.68
2022-10-02T11:50:01.717Z,16.74
2022-10-02T11:53:01.101Z,16.76
2022-10-02T11:55:43.151Z,16.67
2022-10-02T11:58:18.669Z,16.50
2022-10-02T12:01:10.526Z,16.39
2022-10-02T12:03:53.291Z,16.17
2022-10-02T12:06:39.752Z,16.01
2022-10-02T12:09:17.210Z,16.04
2022-10-02T12:11:59.140Z,15.97
2022-10-02T12:14:38.046Z,16.00
2022-10-02T12:17:18.529Z,16.31
2022-10-02T12:20:18.944Z,16.52
2022-10-02T12:23:15.423Z,16.57
2022-10-02T12:26:08.691Z,16.66
2022-10-02T12:28:46.664Z,16.73
2022-10-02T12:31:21.381Z,16.75
2022-10-02T12:34:00.567Z,16.75
2022-10-02T12:36:46.394Z,16.91
2022-10-02T12:39:33.106Z,17.28
2022-10-02T12:42:29.241Z,17.33
2022-10-02T12:45:33.739Z,17.68
2022-10-02T12:48:22.552Z,17.61
2022-10-02T12:51:10.778Z,17.73
2022-10-02T12:54:19.118Z,17.59
2022-10-02T12:57:38.774Z,17.56
2022-10-02T13:00:14.374Z,17.25
2022-10-02T13:03:05.220Z,17.15
2022-10-02T13:05:50.639Z,17.01
2022-10-02T13:08:27.926Z,16.91
2022-10-02T13:11:06.661Z,16.75
2022-10-02T13:14:08.235Z,16.88
2022-10-02T13:16:59.877Z,17.00
2022-10-02T13:19:33.833Z,17.02
2022-10-02T13:22:10.336Z,17.02
2022-10-02T13:24:54.188Z,16.85
2022-10-02T13:27:37.368Z,16.76
2022-10-02T13:30:16.345Z,16.69
2022-10-02T13:33:05.325Z,16.61
2022-10-02T13:35:46.771Z,16.62
2022-10-02T13:38:39.731Z,16.62
2022-10-02T13:41:21.627Z,16.67
2022-10-02T13:44:11.551Z,16.49
2022-10-02T13:46:55.428Z,16.35
2022-10-02T13:49:38.142Z,16.31
2022-10-02T13:52:19.886Z,16.19
2022-10-02T13:55:12.510Z,16.16
2022-10-02T13:57:55.184Z,16.05
2022-10-02T14:00:41.747Z,15.97
2022-10-02T14:03:19.300Z,15.89
2022-10-02T14:05:57.761Z,15.82
2022-10-02T14:08:42.218Z,15.75
2022-10-02T14:11:21.595Z,15.66
2022-10-02T14:14:03.717Z,15.72
2022-10-02T14:16:52.790Z,15.60
2022-10-02T14:19:47.602Z,15.43
2022-10-02T14:22:40.686Z,15.40
2022-10-02T14:25:25.838Z,15.69
2022-10-02T14:28:27.678Z,15.91
2022-10-02T14:31:22.487Z,16.02
2022-10-02T14:34:17.806Z,16.10
2022-10-02T14:36:58.179Z,16.18
2022-10-02T14:39:37.555Z,16.24
2022-10-02T14:42:25.488Z,16.21
2022-10-02T14:45:20.568Z,16.34
2022-10-02T14:48:09.945Z,16.28
2022-10-02T14:50:54.425Z,16.23
2022-10-02T14:53:53.187Z,16.21
2022-10-02T14:56:46.349Z,16.06
2022-10-02T14:59:23.786Z,16.02
2022-10-02T15:02:00.865Z,15.89
2022-10-02T15:04:37.805Z,15.92
2022-10-02T15:07:10.817Z,15.90
2022-10-02T15:10:01.170Z,15.84
2022-10-02T15:12:45.090Z,15.75
2022-10-02T15:15:19.298Z,15.67
2022-10-02T15:18:14.140Z,15.66
2022-10-02T15:20:58.816Z,15.53
2022-10-02T15:23:45.044Z,15.53
2022-10-02T15:26:32.214Z,15.41
2022-10-02T15:29:20.527Z,15.33
2022-10-02T15:32:20.370Z,15.29
2022-10-02T15:34:56.564Z,15.21
2022-10-02T15:37:32.178Z,15.20
2022-10-02T15:40:17.167Z,15.05
2022-10-02T15:42:50.812Z,14.96
2022-10-02T15:45:42.805Z,14.90
2022-10-02T15:48:35.428Z,14.91
2022-10-02T15:51:18.838Z,14.95
2022-10-02T15:54:06.095Z,14.86
2022-10-02T15:56:51.572Z,14.70
2022-10-02T15:59:42.896Z,14.62
2022-10-02T16:02:32.462Z,14.66
2022-10-02T16:05:15.152Z,14.60
2022-10-02T16:08:11.165Z,14.59
2022-10-02T16:10:56.340Z,14.41
2022-10-02T16:13:44.801Z,14.33
2022-10-02T16:16:46.078Z,14.28
2022-10-02T16:19:26.657Z,14.33
2022-10-02T16:22:18.809Z,14.29
2022-10-02T16:25:12.077Z,14.17
2022-10-02T16:27:50.467Z,14.10
2022-10-02T16:30:20.914Z,13.99
2022-10-02T16:33:18.013Z,13.92
2022-10-02T16:36:03.746Z,14.02
2022-10-02T16:38:46.592Z,14.00
2022-10-02T16:41:36.206Z,13.88
2022-10-02T16:44:28.426Z,13.75
2022-10-02T16:47:05.075Z,13.74
2022-10-02T16:49:45.028Z,13.75
2022-10-02T16:52:21.994Z,13.62
2022-10-02T16:54:58.666Z,13.62
2022-10-02T16:57:53.593Z,13.59
2022-10-02T17:00:29.217Z,13.56
2022-10-02T17:03:05.469Z,13.68
2022-10-02T17:05:45.051Z,13.59
2022-10-02T17:08:20.315Z,13.53
2022-10-02T17:11:06.286Z,13.53
2022-10-02T17:13:47.502Z,13.48
2022-10-02T17:16:21.502Z,13.43
2022-10-02T17:18:55.993Z,13.39
2022-10-02T17:21:29.020Z,13.45
2022-10-02T17:24:21.569Z,13.44
2022-10-02T17:27:03.313Z,13.48
2022-10-02T17:29:39.860Z,13.45
2022-10-02T17:32:09.464Z,13.26
2022-10-02T17:34:48.765Z,13.19
2022-10-02T17:37:44.781Z,13.06
2022-10-02T17:40:17.859Z,13.07
2022-10-02T17:42:54.637Z,13.05
2022-10-02T17:45:31.910Z,12.86
2022-10-02T17:48:26.106Z,12.74
2022-10-02T17:51:48.176Z,12.78
2022-10-02T17:54:55.329Z,12.84
2022-10-02T17:57:44.376Z,12.70
2022-10-02T18:00:16.945Z,12.75
2022-10-02T18:02:54.405Z,12.69
2022-10-02T18:05:31.681Z,12.78
2022-10-02T18:08:13.739Z,12.71
2022-10-02T18:10:56.910Z,12.77
2022-10-02T18:13:41.837Z,12.66
2022-10-02T18:16:24.225Z,12.60
2022-10-02T18:19:24.285Z,12.64
2022-10-02T18:22:09.759Z,12.52
2022-10-02T18:24:56.119Z,12.51
2022-10-02T18:27:42.132Z,12.51
2022-10-02T18:30:16.438Z,12.47
2022-10-02T18:33:02.013Z,12.48
2022-10-02T18:35:39.698Z,12.51
2022-10-02T18:38:16.923Z,12.58
2022-10-02T18:40:54.287Z,12.57
2022-10-02T18:43:35.261Z,12.56
2022-10-02T18:46:17.402Z,12.52
2022-10-02T18:49:07.085Z,12.54
2022-10-02T18:52:02.534Z,12.44
2022-10-02T18:54:44.570Z,12.40
2022-10-02T18:57:29.333Z,12.35
2022-10-02T19:00:12.910Z,12.33
2022-10-02T19:02:55.792Z,12.38
2022-10-02T19:05:32.993Z,12.40
2022-10-02T19:08:17.086Z,12.45
2022-10-02T19:10:47.506Z,12.35
2022-10-02T19:13:26.435Z,12.23
2022-10-02T19:15:57.817Z,12.13
2022-10-02T19:18:28.231Z,12.13
2022-10-02T19:21:02.574Z,12.13
2022-10-02T19:23:35.091Z,12.07
2022-10-02T19:26:15.436Z,12.05
2022-10-02T19:28:47.193Z,12.03
2022-10-02T19:31:22.338Z,12.02
2022-10-02T19:33:53.826Z,12.03
2022-10-02T19:36:26.241Z,11.88
2022-10-02T19:39:00.730Z,11.90
2022-10-02T19:41:35.029Z,11.70
2022-10-02T19:44:06.447Z,11.73
2022-10-02T19:46:40.796Z,11.75
2022-10-02T19:49:18.003Z,11.76
2022-10-02T19:51:47.623Z,11.60
2022-10-02T19:54:20.669Z,11.47
2022-10-02T19:56:53.230Z,11.57
2022-10-02T19:59:27.724Z,11.55
2022-10-02T20:02:00.306Z,11.57
2022-10-02T20:04:31.242Z,11.48
2022-10-02T20:07:01.404Z,11.51
2022-10-02T20:09:35.613Z,11.52
2022-10-02T20:12:11.877Z,11.52
2022-10-02T20:14:43.968Z,11.50
2022-10-02T20:17:13.193Z,11.45
2022-10-02T20:19:51.202Z,11.38
2022-10-02T20:22:30.028Z,11.38
2022-10-02T20:25:03.547Z,11.31
2022-10-02T20:27:41.213Z,11.27
2022-10-02T20:30:16.057Z,11.28
2022-10-02T20:32:54.023Z,11.38
2022-10-02T20:35:29.899Z,11.31
2022-10-02T20:38:01.464Z,11.39
2022-10-02T20:40:35.905Z,11.41
2022-10-02T20:43:11.034Z,11.55
2022-10-02T20:45:45.275Z,11.59
2022-10-02T20:49:06.913Z,11.63
2022-10-02T20:51:57.325Z,11.68
2022-10-02T20:54:45.952Z,11.74
2022-10-02T20:58:00.836Z,11.76
2022-10-02T21:00:39.087Z,11.63
2022-10-02T21:03:37.138Z,11.67
2022-10-02T21:06:37.388Z,11.57
2022-10-02T21:09:41.810Z,11.60
2022-10-02T21:12:35.611Z,11.64
2022-10-02T21:15:45.902Z,11.65
2022-10-02T21:18:53.398Z,11.67
2022-10-02T21:21:53.814Z,11.66
2022-10-02T21:24:49.810Z,11.66
2022-10-02T21:28:00.611Z,11.63
2022-10-02T21:30:37.373Z,11.61
2022-10-02T21:33:14.347Z,11.62
2022-10-02T21:35:52.642Z,11.69
2022-10-02T21:39:07.306Z,11.65
2022-10-02T21:42:16.967Z,11.63
2022-10-02T21:45:23.288Z,11.55
2022-10-02T21:48:26.354Z,11.58
2022-10-02T21:51:47.398Z,11.54
2022-10-02T21:54:50.697Z,11.56
2022-10-02T21:58:09.107Z,11.60
2022-10-02T22:00:53.204Z,11.60
2022-10-02T22:03:57.848Z,11.69
2022-10-02T22:06:37.154Z,11.56
2022-10-02T22:09:26.007Z,11.71
2022-10-02T22:12:11.783Z,11.64
2022-10-02T22:14:45.512Z,11.63
2022-10-02T22:17:24.565Z,11.75
2022-10-02T22:20:10.450Z,11.83
2022-10-02T22:22:51.552Z,11.85
2022-10-02T22:25:36.024Z,11.77
2022-10-02T22:28:16.070Z,11.81
2022-10-02T22:31:03.333Z,11.88
2022-10-02T22:33:53.486Z,11.96
2022-10-02T22:36:45.260Z,11.98
2022-10-02T22:39:22.010Z,11.95
2022-10-02T22:41:56.681Z,11.95
2022-10-02T22:44:29.441Z,11.86
2022-10-02T22:47:00.699Z,11.97
2022-10-02T22:49:36.719Z,11.95
2022-10-02T22:52:11.653Z,11.98
2022-10-02T22:54:46.359Z,12.00
2022-10-02T22:57:25.797Z,11.93
2022-10-02T23:00:02.770Z,11.91
2022-10-02T23:02:37.011Z,11.76
2022-10-02T23:05:12.719Z,11.70
2022-10-02T23:07:46.675Z,11.68
2022-10-02T23:10:25.069Z,11.65
2022-10-02T23:13:02.574Z,11.73
2022-10-02T23:15:41.100Z,11.65
2022-10-02T23:18:20.849Z,11.53
2022-10-02T23:20:53.842Z,11.49
2022-10-02T23:23:29.024Z,11.48
2022-10-02T23:26:04.291Z,11.54
2022-10-02T23:28:40.401Z,11.44
2022-10-02T23:31:20.054Z,11.52
2022-10-02T23:33:56.823Z,11.48
2022-10-02T23:36:31.756Z,11.43
2022-10-02T23:39:06.895Z,11.47
2022-10-02T23:41:46.429Z,11.57
2022-10-02T23:44:31.369Z,11.53
2022-10-02T23:47:13.984Z,11.54
2022-10-02T23:49:46.907Z,11.52
2022-10-02T23:52:40.836Z,11.51
2022-10-02T23:55:31.189Z,11.52
2022-10-02T23:58:23.355Z,11.56
